createdAt,value
2019-05-10T00:00:20.040Z,35.93
2019-05-10T00:03:08.607Z,40.50
2019-05-10T00:05:57.226Z,34.53
2019-05-10T00:08:45.743Z,36.30
2019-05-10T00:11:30.019Z,33.23
2019-05-10T00:14:19.013Z,29.47
2019-05-10T00:16:51.021Z,26.63
2019-05-10T00:19:21.956Z,28.70
2019-05-10T00:21:52.840Z,30.57
2019-05-10T00:24:23.728Z,28.23
2019-05-10T00:26:54.514Z,27.57
2019-05-10T00:29:25.205Z,24.63
2019-05-10T00:31:55.873Z,26.30
2019-05-10T00:34:26.498Z,30.00
2019-05-10T00:36:57.188Z,31.47
2019-05-10T00:39:28.279Z,28.37
2019-05-10T00:41:58.901Z,30.37
2019-05-10T00:44:29.746Z,29.83
2019-05-10T00:47:00.887Z,24.87
2019-05-10T00:49:31.794Z,28.40
2019-05-10T00:52:02.633Z,24.20
2019-05-10T00:54:33.310Z,29.57
2019-05-10T00:57:03.873Z,29.13
2019-05-10T00:59:34.938Z,30.83
2019-05-10T01:02:05.583Z,34.63
2019-05-10T01:04:36.580Z,30.30
2019-05-10T01:07:07.253Z,37.33
2019-05-10T01:09:38.992Z,36.37
2019-05-10T01:12:10.915Z,59.60
2019-05-10T01:14:43.242Z,46.23
2019-05-10T01:17:13.896Z,55.10
2019-05-10T01:19:44.627Z,54.67
2019-05-10T01:22:15.254Z,49.77
2019-05-10T01:24:47.523Z,45.00
2019-05-10T01:27:18.297Z,55.17
2019-05-10T01:29:50.903Z,49.20
2019-05-10T01:32:23.115Z,56.57
2019-05-10T01:34:54.035Z,52.50
2019-05-10T01:37:24.957Z,55.97
2019-05-10T01:39:56.418Z,50.73
2019-05-10T01:42:27.230Z,39.60
2019-05-10T01:44:57.836Z,46.63
2019-05-10T01:47:28.464Z,49.43
2019-05-10T01:49:59.119Z,50.63
2019-05-10T01:52:29.947Z,45.37
2019-05-10T01:55:00.658Z,46.87
2019-05-10T01:57:31.206Z,46.00
2019-05-10T02:00:01.941Z,50.53
2019-05-10T02:02:32.872Z,46.60
2019-05-10T02:05:03.436Z,38.93
2019-05-10T02:07:34.944Z,41.70
2019-05-10T02:10:07.956Z,33.90
2019-05-10T02:12:38.665Z,34.03
2019-05-10T02:15:09.879Z,33.83
2019-05-10T02:17:40.739Z,35.10
2019-05-10T02:20:11.528Z,38.60
2019-05-10T02:22:42.141Z,37.50
2019-05-10T02:25:13.166Z,37.80
2019-05-10T02:27:43.703Z,34.00
2019-05-10T02:30:14.640Z,38.00
2019-05-10T02:32:45.502Z,32.70
2019-05-10T02:35:16.212Z,28.80
2019-05-10T02:37:47.161Z,31.63
2019-05-10T02:40:18.172Z,31.93
2019-05-10T02:42:49.880Z,34.23
2019-05-10T02:45:20.652Z,40.43
2019-05-10T02:47:51.561Z,66.87
2019-05-10T02:50:22.427Z,64.57
2019-05-10T02:52:53.076Z,55.40
2019-05-10T02:55:23.963Z,43.97
2019-05-10T02:57:55.878Z,34.70
2019-05-10T03:00:26.589Z,31.83
2019-05-10T03:02:58.539Z,24.67
2019-05-10T03:05:31.229Z,28.03
2019-05-10T03:08:03.810Z,32.47
2019-05-10T03:10:36.666Z,34.27
2019-05-10T03:13:08.944Z,34.87
2019-05-10T03:15:41.179Z,38.37
2019-05-10T03:18:11.993Z,34.57
2019-05-10T03:20:44.444Z,31.93
2019-05-10T03:23:16.182Z,19.57
2019-05-10T03:25:47.083Z,23.43
2019-05-10T03:28:17.986Z,19.53
2019-05-10T03:30:48.874Z,21.40
2019-05-10T03:33:19.758Z,19.47
2019-05-10T03:35:50.575Z,18.53
2019-05-10T03:38:21.458Z,18.33
2019-05-10T03:40:52.888Z,18.53
2019-05-10T03:43:23.519Z,20.17
2019-05-10T03:45:54.407Z,15.83
2019-05-10T03:48:25.059Z,17.37
2019-05-10T03:50:55.709Z,17.97
2019-05-10T03:53:26.555Z,18.77
2019-05-10T03:55:57.279Z,19.17
2019-05-10T03:58:29.002Z,22.90
2019-05-10T04:01:00.809Z,19.33
2019-05-10T04:03:31.674Z,21.23
2019-05-10T04:06:02.555Z,19.80
2019-05-10T04:08:33.104Z,20.73
2019-05-10T04:11:05.025Z,16.77
2019-05-10T04:13:35.605Z,18.60
2019-05-10T04:16:06.330Z,20.17
2019-05-10T04:18:37.019Z,21.83
2019-05-10T04:21:07.707Z,18.37
2019-05-10T04:23:38.503Z,20.10
2019-05-10T04:26:09.219Z,27.23
2019-05-10T04:28:39.784Z,21.47
2019-05-10T04:31:10.603Z,30.07
2019-05-10T04:33:41.213Z,25.37
2019-05-10T04:36:12.938Z,21.10
2019-05-10T04:38:45.161Z,20.80
2019-05-10T04:41:15.736Z,25.10
2019-05-10T04:43:46.327Z,21.13
2019-05-10T04:46:17.750Z,18.13
2019-05-10T04:48:48.506Z,18.13
2019-05-10T04:51:19.148Z,16.63
2019-05-10T04:53:51.405Z,18.63
2019-05-10T04:56:22.098Z,15.87
2019-05-10T04:58:52.954Z,17.27
2019-05-10T05:01:25.258Z,15.80
2019-05-10T05:03:56.143Z,15.23
2019-05-10T05:06:28.246Z,15.40
2019-05-10T05:09:00.141Z,14.47
2019-05-10T05:11:30.977Z,15.17
2019-05-10T05:14:01.594Z,16.43
2019-05-10T05:16:32.552Z,14.43
2019-05-10T05:19:03.243Z,17.73
2019-05-10T05:21:34.034Z,18.33
2019-05-10T05:24:06.061Z,18.97
2019-05-10T05:26:36.944Z,18.57
2019-05-10T05:29:07.479Z,19.30
2019-05-10T05:31:38.025Z,19.73
2019-05-10T05:34:08.645Z,19.23
2019-05-10T05:36:39.184Z,19.83
2019-05-10T05:39:10.170Z,16.70
2019-05-10T05:41:48.986Z,17.20
2019-05-10T05:44:13.276Z,18.67
2019-05-10T05:46:44.445Z,17.23
2019-05-10T05:49:15.318Z,19.57
2019-05-10T05:51:46.115Z,19.57
2019-05-10T05:54:20.890Z,19.20
2019-05-10T05:56:50.772Z,20.97
2019-05-10T05:59:23.650Z,20.43
2019-05-10T06:02:00.605Z,17.27
2019-05-10T06:04:28.805Z,21.13
2019-05-10T06:07:00.587Z,19.13
2019-05-10T06:09:38.029Z,19.40
2019-05-10T06:12:07.394Z,23.63
2019-05-10T06:14:43.367Z,23.03
2019-05-10T06:17:11.704Z,28.60
2019-05-10T06:19:42.659Z,21.53
2019-05-10T06:22:13.662Z,25.73
2019-05-10T06:24:46.910Z,24.37
2019-05-10T06:27:16.958Z,24.60
2019-05-10T06:29:47.624Z,26.97
2019-05-10T06:32:18.472Z,23.50
2019-05-10T06:34:50.091Z,22.97
2019-05-10T06:37:21.050Z,24.20
2019-05-10T06:39:51.749Z,27.03
2019-05-10T06:42:22.720Z,24.30
2019-05-10T06:44:54.678Z,30.67
2019-05-10T06:47:27.535Z,24.70
2019-05-10T06:49:58.697Z,21.67
2019-05-10T06:52:30.026Z,22.67
2019-05-10T06:55:00.860Z,22.27
2019-05-10T06:57:31.781Z,22.60
2019-05-10T07:00:06.345Z,24.27
2019-05-10T07:02:36.797Z,21.90
2019-05-10T07:05:07.895Z,23.37
2019-05-10T07:07:44.702Z,21.97
2019-05-10T07:10:18.567Z,25.07
2019-05-10T07:12:45.858Z,24.13
2019-05-10T07:15:17.617Z,24.93
2019-05-10T07:17:48.513Z,26.77
2019-05-10T07:20:23.560Z,24.57
2019-05-10T07:22:52.007Z,27.83
2019-05-10T07:25:24.190Z,25.93
2019-05-10T07:27:55.216Z,24.77
2019-05-10T07:30:31.986Z,26.23
2019-05-10T07:33:02.930Z,24.70
2019-05-10T07:35:36.790Z,24.63
2019-05-10T07:38:06.831Z,23.77
2019-05-10T07:40:37.917Z,26.20
2019-05-10T07:43:08.692Z,25.83
2019-05-10T07:45:39.602Z,23.77
2019-05-10T07:48:12.048Z,24.33
2019-05-10T07:50:49.789Z,24.37
2019-05-10T07:53:16.255Z,24.90
2019-05-10T07:55:47.571Z,25.33
2019-05-10T07:58:18.300Z,21.87
2019-05-10T08:00:49.824Z,23.85
2019-05-10T08:03:23.752Z,21.60
2019-05-10T08:06:01.308Z,24.72
2019-05-10T08:08:29.757Z,23.15
2019-05-10T08:11:00.967Z,22.13
2019-05-10T08:13:31.954Z,22.55
2019-05-10T08:16:05.361Z,22.17
2019-05-10T08:18:36.385Z,21.62
2019-05-10T08:21:20.872Z,22.17
2019-05-10T08:23:43.899Z,23.92
2019-05-10T08:26:20.322Z,23.10
2019-05-10T08:28:47.633Z,23.52
2019-05-10T08:31:18.883Z,26.20
2019-05-10T08:33:58.506Z,23.42
2019-05-10T08:36:23.528Z,22.93
2019-05-10T08:39:05.072Z,23.90
2019-05-10T08:41:27.545Z,23.90
2019-05-10T08:43:58.094Z,22.70
2019-05-10T08:46:38.263Z,23.07
2019-05-10T08:49:02.103Z,22.07
2019-05-10T08:51:34.514Z,20.97
2019-05-10T08:54:05.818Z,20.68
2019-05-10T08:56:44.065Z,20.52
2019-05-10T08:59:23.196Z,19.37
2019-05-10T09:01:50.856Z,19.80
2019-05-10T09:04:22.272Z,20.50
2019-05-10T09:06:59.567Z,19.02
2019-05-10T09:09:26.315Z,17.55
2019-05-10T09:12:04.256Z,17.60
2019-05-10T09:14:32.667Z,14.05
2019-05-10T09:17:04.424Z,16.52
2019-05-10T09:19:40.537Z,14.95
2019-05-10T09:22:12.342Z,15.53
2019-05-10T09:24:48.728Z,13.60
2019-05-10T09:27:15.787Z,16.50
2019-05-10T09:29:47.144Z,15.85
2019-05-10T09:32:23.371Z,14.40
2019-05-10T09:34:54.082Z,14.73
2019-05-10T09:37:23.178Z,15.80
2019-05-10T09:40:06.060Z,16.42
2019-05-10T09:42:34.827Z,16.00
2019-05-10T09:45:02.893Z,16.60
2019-05-10T09:47:33.167Z,16.97
2019-05-10T09:50:04.543Z,15.75
2019-05-10T09:52:35.287Z,13.98
2019-05-10T09:55:11.733Z,9.33
2019-05-10T09:57:40.728Z,9.45
2019-05-10T10:00:12.993Z,9.40
2019-05-10T10:02:47.683Z,10.40
2019-05-10T10:05:17.964Z,9.80
2019-05-10T10:07:48.760Z,7.15
2019-05-10T10:10:28.574Z,9.68
2019-05-10T10:12:52.784Z,7.62
2019-05-10T10:15:33.557Z,7.78
2019-05-10T10:17:58.334Z,7.03
2019-05-10T10:20:30.045Z,8.85
2019-05-10T10:23:02.062Z,7.30
2019-05-10T10:25:35.166Z,8.85
2019-05-10T10:28:08.289Z,9.15
2019-05-10T10:30:37.571Z,8.23
2019-05-10T10:33:11.259Z,7.40
2019-05-10T10:35:41.134Z,11.20
2019-05-10T10:38:11.950Z,8.65
2019-05-10T10:40:44.891Z,8.38
2019-05-10T10:43:17.826Z,7.92
2019-05-10T10:45:48.072Z,8.08
2019-05-10T10:48:20.385Z,9.38
2019-05-10T10:50:55.733Z,9.75
2019-05-10T10:53:23.696Z,8.63
2019-05-10T10:56:00.899Z,8.28
2019-05-10T10:58:27.668Z,8.95
2019-05-10T11:01:00.307Z,10.05
2019-05-10T11:03:32.541Z,10.80
2019-05-10T11:06:03.272Z,10.82
2019-05-10T11:08:34.361Z,8.33
2019-05-10T11:11:05.134Z,8.55
2019-05-10T11:13:45.763Z,10.35
2019-05-10T11:16:14.189Z,10.55
2019-05-10T11:18:41.825Z,8.05
2019-05-10T11:21:14.118Z,9.35
2019-05-10T11:23:44.942Z,9.58
2019-05-10T11:26:18.555Z,10.03
2019-05-10T11:28:51.398Z,11.65
2019-05-10T11:31:22.738Z,7.28
2019-05-10T11:33:58.403Z,8.23
2019-05-10T11:36:26.319Z,8.45
2019-05-10T11:38:58.768Z,10.03
2019-05-10T11:41:31.429Z,8.13
2019-05-10T11:44:08.676Z,8.08
2019-05-10T11:46:36.761Z,7.17
2019-05-10T11:49:07.675Z,8.45
2019-05-10T11:51:41.162Z,7.08
2019-05-10T11:54:11.831Z,7.10
2019-05-10T11:56:43.980Z,4.90
2019-05-10T12:01:58.100Z,7.17
2019-05-10T12:04:33.098Z,4.40
2019-05-10T12:06:55.006Z,4.47
2019-05-10T12:09:25.690Z,5.97
2019-05-10T12:11:57.166Z,4.80
2019-05-10T12:14:28.787Z,4.87
2019-05-10T12:17:05.615Z,5.35
2019-05-10T12:19:36.775Z,6.87
2019-05-10T12:22:04.914Z,4.58
2019-05-10T12:24:52.133Z,6.33
2019-05-10T12:26:19.109Z,4.85
2019-05-10T12:27:18.752Z,5.83
2019-05-10T12:29:40.576Z,5.25
2019-05-10T12:32:11.287Z,5.80
2019-05-10T12:34:45.954Z,6.37
2019-05-10T12:37:14.369Z,6.60
2019-05-10T12:39:44.962Z,5.87
2019-05-10T12:42:15.886Z,5.58
2019-05-10T12:44:48.244Z,4.28
2019-05-10T12:47:21.322Z,4.72
2019-05-10T12:49:53.902Z,6.47
2019-05-10T12:52:28.618Z,5.25
2019-05-10T12:54:57.289Z,5.28
2019-05-10T12:57:27.937Z,8.23
2019-05-10T13:00:00.931Z,5.62
2019-05-10T13:02:31.743Z,5.28
2019-05-10T13:05:02.488Z,5.50
2019-05-10T13:07:36.918Z,6.95
2019-05-10T13:10:09.977Z,6.00
2019-05-10T13:12:44.500Z,4.25
2019-05-10T13:15:15.166Z,6.20
2019-05-10T13:17:50.385Z,4.00
2019-05-10T13:20:19.330Z,3.92
2019-05-10T13:22:50.195Z,4.47
2019-05-10T13:25:21.080Z,5.78
2019-05-10T13:27:51.785Z,5.08
2019-05-10T13:30:28.298Z,5.20
2019-05-10T13:32:59.113Z,4.83
2019-05-10T13:35:30.024Z,4.65
2019-05-10T13:38:04.038Z,5.17
2019-05-10T13:40:39.030Z,2.65
2019-05-10T13:43:06.993Z,2.55
2019-05-10T13:45:40.908Z,3.40
2019-05-10T13:48:13.200Z,3.08
2019-05-10T13:50:44.341Z,3.65
2019-05-10T13:53:20.889Z,3.70
2019-05-10T13:55:52.897Z,4.17
2019-05-10T13:58:27.212Z,3.40
2019-05-10T14:00:57.917Z,4.20
2019-05-10T14:03:42.213Z,3.80
2019-05-10T14:06:01.144Z,3.45
2019-05-10T14:08:32.448Z,4.78
2019-05-10T14:11:03.456Z,4.10
2019-05-10T14:13:35.740Z,4.17
2019-05-10T14:16:08.397Z,4.25
2019-05-10T14:18:40.605Z,5.30
2019-05-10T14:21:12.305Z,4.70
2019-05-10T14:23:43.016Z,3.33
2019-05-10T14:26:18.002Z,3.58
2019-05-10T14:28:53.062Z,5.95
2019-05-10T14:31:20.262Z,3.50
2019-05-10T14:34:14.005Z,4.62
2019-05-10T14:36:24.647Z,3.02
2019-05-10T14:38:56.765Z,2.10
2019-05-10T14:41:28.346Z,3.60
2019-05-10T14:43:59.197Z,3.30
2019-05-10T14:46:30.198Z,2.72
2019-05-10T14:49:08.711Z,4.17
2019-05-10T14:51:44.280Z,2.22
2019-05-10T14:54:08.887Z,3.85
2019-05-10T14:56:40.298Z,2.30
2019-05-10T14:59:11.243Z,1.45
2019-05-10T15:01:44.781Z,2.08
2019-05-10T15:04:20.186Z,1.60
2019-05-10T15:06:47.725Z,2.37
2019-05-10T15:09:21.548Z,1.67
2019-05-10T15:11:51.183Z,1.67
2019-05-10T15:14:21.908Z,1.80
2019-05-10T15:16:53.637Z,3.12
2019-05-10T15:19:28.551Z,4.03
2019-05-10T15:21:57.593Z,7.13
2019-05-10T15:24:28.507Z,4.30
2019-05-10T15:27:01.117Z,3.73
2019-05-10T15:29:31.728Z,2.47
2019-05-10T15:32:02.670Z,4.00
2019-05-10T15:34:33.438Z,4.47
2019-05-10T15:37:09.330Z,2.60
2019-05-10T15:39:37.936Z,2.03
2019-05-10T15:42:09.308Z,2.13
2019-05-10T15:44:42.043Z,1.87
2019-05-10T15:47:19.755Z,1.10
2019-05-10T15:49:47.159Z,1.47
2019-05-10T15:52:18.267Z,0.77
2019-05-10T15:54:49.174Z,1.73
2019-05-10T15:57:21.824Z,1.67
2019-05-10T15:59:56.643Z,1.83
2019-05-10T16:02:25.167Z,2.73
2019-05-10T16:04:55.753Z,2.13
2019-05-10T16:07:26.790Z,1.13
2019-05-10T16:09:57.802Z,2.20
2019-05-10T16:12:28.789Z,1.70
2019-05-10T16:14:59.664Z,1.70
2019-05-10T16:17:31.521Z,2.23
2019-05-10T16:20:02.295Z,3.77
2019-05-10T16:22:33.317Z,3.73
2019-05-10T16:25:07.636Z,4.67
2019-05-10T16:27:44.514Z,3.27
2019-05-10T16:30:17.417Z,2.70
2019-05-10T16:32:43.551Z,2.27
2019-05-10T16:35:14.976Z,2.87
2019-05-10T16:37:45.579Z,2.87
2019-05-10T16:40:17.374Z,3.90
2019-05-10T16:42:48.403Z,3.20
2019-05-10T16:45:19.314Z,3.27
2019-05-10T16:47:51.573Z,4.17
2019-05-10T16:50:26.127Z,5.63
2019-05-10T16:52:59.337Z,5.70
2019-05-10T16:55:27.563Z,4.50
2019-05-10T16:57:59.288Z,6.33
2019-05-10T17:00:30.271Z,5.40
2019-05-10T17:03:01.026Z,4.63
2019-05-10T17:05:31.654Z,6.77
2019-05-10T17:08:02.601Z,9.20
2019-05-10T17:10:34.733Z,7.93
2019-05-10T17:13:06.682Z,8.27
2019-05-10T17:15:40.026Z,8.37
2019-05-10T17:18:17.771Z,7.23
2019-05-10T17:20:45.428Z,6.83
2019-05-10T17:23:16.272Z,7.10
2019-05-10T17:25:47.187Z,8.87
2019-05-10T17:28:18.015Z,9.13
2019-05-10T17:30:49.301Z,6.77
2019-05-10T17:33:20.119Z,8.10
2019-05-10T17:35:50.966Z,6.90
2019-05-10T17:38:22.634Z,8.07
2019-05-10T17:40:54.539Z,8.93
2019-05-10T17:43:26.129Z,5.77
2019-05-10T17:45:57.245Z,8.27
2019-05-10T17:48:29.086Z,6.60
2019-05-10T17:50:59.844Z,8.43
2019-05-10T17:53:30.624Z,7.50
2019-05-10T17:56:03.658Z,7.90
2019-05-10T17:58:35.832Z,8.83
2019-05-10T18:07:56.794Z,20.93
2019-05-10T18:10:27.730Z,12.70
2019-05-10T18:13:03.471Z,11.57
2019-05-10T18:15:32.874Z,8.37
2019-05-10T18:18:04.366Z,9.27
2019-05-10T18:20:42.167Z,9.17
2019-05-10T18:23:07.968Z,9.87
2019-05-10T18:25:44.633Z,11.10
2019-05-10T18:28:19.165Z,14.03
2019-05-10T18:30:47.778Z,13.10
2019-05-10T18:33:18.502Z,11.97
2019-05-10T18:35:52.902Z,12.60
2019-05-10T18:38:21.688Z,15.13
2019-05-10T18:40:52.316Z,14.77
2019-05-10T18:43:23.012Z,14.30
2019-05-10T18:45:54.816Z,14.43
2019-05-10T18:48:25.616Z,14.40
2019-05-10T18:50:56.364Z,13.83
2019-05-10T18:53:27.961Z,12.07
2019-05-10T18:55:59.139Z,9.43
2019-05-10T18:58:31.575Z,9.80
2019-05-10T19:01:02.617Z,9.30
2019-05-10T19:03:35.504Z,9.03
2019-05-10T19:06:11.136Z,10.27
2019-05-10T19:08:38.974Z,8.57
2019-05-10T19:11:09.823Z,8.07
2019-05-10T19:13:47.969Z,7.80
2019-05-10T19:16:14.732Z,9.17
2019-05-10T19:18:45.527Z,8.57
2019-05-10T19:21:18.152Z,8.90
2019-05-10T19:23:52.266Z,7.87
2019-05-10T19:26:27.451Z,8.43
2019-05-10T19:28:58.928Z,8.63
2019-05-10T19:31:31.759Z,8.17
2019-05-10T19:34:01.160Z,7.20
2019-05-10T19:36:33.159Z,8.53
2019-05-10T19:39:06.076Z,9.87
2019-05-10T19:41:36.730Z,10.47
2019-05-10T19:44:07.780Z,12.63
2019-05-10T19:46:40.556Z,9.47
2019-05-10T19:49:13.252Z,9.03
2019-05-10T19:51:48.297Z,9.83
2019-05-10T19:54:19.553Z,10.27
2019-05-10T19:56:51.143Z,10.53
2019-05-10T19:59:23.110Z,11.87
2019-05-10T20:01:53.864Z,10.20
2019-05-10T20:04:24.722Z,12.77
2019-05-10T20:06:56.079Z,11.97
2019-05-10T20:09:28.924Z,11.00
2019-05-10T20:12:00.091Z,11.30
2019-05-10T20:14:32.266Z,12.50
2019-05-10T20:17:05.892Z,12.70
2019-05-10T20:19:37.533Z,14.30
2019-05-10T20:22:12.332Z,14.10
2019-05-10T20:24:45.225Z,15.67
2019-05-10T20:27:16.410Z,13.33
2019-05-10T20:29:47.360Z,11.80
2019-05-10T20:32:18.890Z,15.47
2019-05-10T20:34:49.768Z,14.03
2019-05-10T20:37:20.673Z,14.33
2019-05-10T20:39:51.816Z,16.63
2019-05-10T20:42:22.805Z,14.80
2019-05-10T20:45:06.583Z,17.37
2019-05-10T20:47:30.496Z,15.77
2019-05-10T20:50:01.724Z,15.97
2019-05-10T20:52:32.897Z,14.33
2019-05-10T20:55:06.010Z,17.50
2019-05-10T20:57:37.112Z,14.67
2019-05-10T21:00:08.632Z,15.37
2019-05-10T21:02:39.969Z,14.70
2019-05-10T21:05:10.832Z,14.87
2019-05-10T21:07:41.677Z,15.73
2019-05-10T21:10:12.867Z,16.33
2019-05-10T21:12:43.587Z,17.30
2019-05-10T21:15:14.459Z,17.83
2019-05-10T21:17:45.208Z,30.30
2019-05-10T21:20:16.206Z,18.37
2019-05-10T21:22:48.092Z,18.53
2019-05-10T21:25:19.013Z,19.13
2019-05-10T21:27:50.108Z,19.40
2019-05-10T21:30:21.007Z,23.80
2019-05-10T21:32:54.396Z,20.13
2019-05-10T21:35:25.189Z,18.60
2019-05-10T21:37:56.138Z,24.37
2019-05-10T21:40:26.870Z,33.00
2019-05-10T21:42:58.104Z,24.10
2019-05-10T21:45:30.324Z,31.20
2019-05-10T21:48:01.556Z,27.50
2019-05-10T21:50:33.285Z,29.70
2019-05-10T21:53:04.199Z,29.30
2019-05-10T21:55:34.903Z,30.90
2019-05-10T21:58:05.657Z,28.13
2019-05-10T22:00:37.938Z,24.17
2019-05-10T22:03:10.322Z,19.10
2019-05-10T22:05:40.906Z,20.20
2019-05-10T22:08:11.856Z,23.03
2019-05-10T22:10:42.711Z,21.23
2019-05-10T22:13:13.565Z,17.73
2019-05-10T22:15:44.295Z,20.53
2019-05-10T22:18:14.881Z,20.97
2019-05-10T22:20:45.618Z,19.80
2019-05-10T22:23:17.191Z,17.90
2019-05-10T22:25:47.954Z,22.57
2019-05-10T22:28:18.786Z,18.20
2019-05-10T22:30:49.822Z,14.73
2019-05-10T22:33:20.506Z,15.00
2019-05-10T22:35:52.317Z,14.47
2019-05-10T22:38:23.363Z,14.00
2019-05-10T22:40:54.911Z,13.40
2019-05-10T22:43:26.163Z,11.90
2019-05-10T22:45:57.658Z,13.90
2019-05-10T22:48:28.577Z,12.80
2019-05-10T22:50:59.428Z,13.50
2019-05-10T22:53:30.111Z,11.67
2019-05-10T22:56:01.055Z,12.23
2019-05-10T22:58:31.744Z,10.87
2019-05-10T23:01:02.660Z,11.87
2019-05-10T23:03:33.505Z,10.33
2019-05-10T23:06:04.191Z,11.30
2019-05-10T23:08:35.051Z,10.70
2019-05-10T23:11:05.745Z,11.40
2019-05-10T23:13:36.690Z,10.70
2019-05-10T23:16:07.511Z,9.67
2019-05-10T23:18:38.168Z,10.20
2019-05-10T23:21:08.975Z,8.43
2019-05-10T23:23:40.592Z,9.70
2019-05-10T23:26:11.538Z,9.83
2019-05-10T23:28:42.525Z,8.13
2019-05-10T23:31:13.218Z,9.77
2019-05-10T23:33:45.963Z,10.60
2019-05-10T23:36:16.849Z,10.17
2019-05-10T23:38:52.181Z,9.60
2019-05-10T23:41:21.330Z,9.17
2019-05-10T23:43:52.138Z,8.77
2019-05-10T23:46:23.342Z,8.40
2019-05-10T23:48:54.254Z,11.57
2019-05-10T23:51:25.528Z,10.37
2019-05-10T23:53:56.243Z,9.10
2019-05-10T23:56:27.023Z,10.23
2019-05-10T23:58:57.664Z,10.20
